createdAt,value
2017-05-14T04:00:40.058Z,1017.98
2017-05-14T04:01:05.624Z,1017.96
2017-05-14T04:01:31.294Z,1017.97
2017-05-14T04:01:56.857Z,1017.98
2017-05-14T04:02:22.435Z,1018.01
2017-05-14T04:02:48.057Z,1018
2017-05-14T04:03:13.633Z,1017.99
2017-05-14T04:03:39.179Z,1018
2017-05-14T04:04:04.807Z,1017.99
2017-05-14T04:04:30.352Z,1018.04
2017-05-14T04:04:55.981Z,1018.02
2017-05-14T04:05:21.660Z,1018.04
2017-05-14T04:05:47.369Z,1018.07
2017-05-14T04:06:13.000Z,1018.04
2017-05-14T04:07:26.823Z,1018.03
2017-05-14T04:07:52.373Z,1018.03
2017-05-14T04:08:18.333Z,1018.06
2017-05-14T04:08:43.982Z,1018.04
2017-05-14T04:09:09.527Z,1018.02
2017-05-14T04:09:35.147Z,1018.04
2017-05-14T04:10:00.882Z,1018.04
2017-05-14T04:10:26.432Z,1018.04
2017-05-14T04:10:52.162Z,1018.02
2017-05-14T04:11:17.736Z,1018
2017-05-14T04:11:43.310Z,1018.04
2017-05-14T04:12:08.888Z,1018.06
2017-05-14T04:12:34.430Z,1018.04
2017-05-14T04:13:00.015Z,1018.02
2017-05-14T04:13:25.556Z,1018.05
2017-05-14T04:13:51.132Z,1018.06
2017-05-14T04:14:16.749Z,1018.06
2017-05-14T04:14:42.301Z,1018.04
2017-05-14T04:15:07.907Z,1018.06
2017-05-14T04:15:33.454Z,1018.07
2017-05-14T04:15:59.010Z,1018.09
2017-05-14T04:16:24.548Z,1018.08
2017-05-14T04:16:50.105Z,1018.06
2017-05-14T04:17:15.660Z,1018.08
2017-05-14T04:18:34.588Z,1018.06
2017-05-14T04:19:00.252Z,1018.1
2017-05-14T04:19:25.883Z,1018.1
2017-05-14T04:19:51.519Z,1018.11
2017-05-14T04:20:17.161Z,1018.11
2017-05-14T04:20:42.726Z,1018.11
2017-05-14T04:21:51.423Z,1018.12
2017-05-14T04:22:17.079Z,1018.13
2017-05-14T04:22:42.653Z,1018.16
2017-05-14T04:23:09.096Z,1018.12
2017-05-14T04:23:34.647Z,1018.08
2017-05-14T04:24:00.288Z,1018.16
2017-05-14T04:24:25.948Z,1018.12
2017-05-14T04:24:51.530Z,1018.13
2017-05-14T04:25:17.252Z,1018.14
2017-05-14T04:25:42.885Z,1018.13
2017-05-14T04:26:08.457Z,1018.15
2017-05-14T04:26:34.031Z,1018.14
2017-05-14T04:26:59.856Z,1018.16
2017-05-14T04:27:25.561Z,1018.17
2017-05-14T04:27:51.132Z,1018.15
2017-05-14T04:28:16.678Z,1018.15
2017-05-14T04:28:42.322Z,1018.17
2017-05-14T04:29:07.917Z,1018.19
2017-05-14T04:29:33.503Z,1018.19
2017-05-14T04:29:59.173Z,1018.2
2017-05-14T04:30:24.793Z,1018.2
2017-05-14T04:30:50.431Z,1018.22
2017-05-14T04:31:16.115Z,1018.21
2017-05-14T04:31:41.669Z,1018.2
2017-05-14T04:32:07.321Z,1018.19
2017-05-14T04:32:32.903Z,1018.23
2017-05-14T04:33:41.653Z,1018.22
2017-05-14T04:34:07.370Z,1018.22
2017-05-14T04:34:32.978Z,1018.22
2017-05-14T04:34:58.619Z,1018.25
2017-05-14T04:35:24.237Z,1018.25
2017-05-14T04:35:49.787Z,1018.25
2017-05-14T04:36:15.374Z,1018.25
2017-05-14T04:36:40.941Z,1018.22
2017-05-14T04:37:06.605Z,1018.24
2017-05-14T04:37:32.162Z,1018.26
2017-05-14T04:37:57.737Z,1018.27
2017-05-14T04:38:23.427Z,1018.28
2017-05-14T04:38:49.004Z,1018.28
2017-05-14T04:39:14.632Z,1018.32
2017-05-14T04:39:40.209Z,1018.31
2017-05-14T04:40:05.763Z,1018.34
2017-05-14T04:40:31.360Z,1018.31
2017-05-14T04:40:56.914Z,1018.27
2017-05-14T04:41:22.593Z,1018.28
2017-05-14T04:41:48.160Z,1018.29
2017-05-14T04:42:13.721Z,1018.27
2017-05-14T04:42:39.390Z,1018.27
2017-05-14T04:43:04.987Z,1018.28
2017-05-14T04:43:30.610Z,1018.29
2017-05-14T04:43:56.222Z,1018.26
2017-05-14T04:44:21.812Z,1018.32
2017-05-14T04:44:47.373Z,1018.29
2017-05-14T04:45:12.926Z,1018.31
2017-05-14T04:45:38.522Z,1018.33
2017-05-14T04:46:04.144Z,1018.31
2017-05-14T04:46:30.333Z,1018.29
2017-05-14T04:46:55.906Z,1018.31
2017-05-14T04:47:21.539Z,1018.3
2017-05-14T04:47:47.103Z,1018.32
2017-05-14T04:48:12.772Z,1018.33
2017-05-14T04:48:38.336Z,1018.34
2017-05-14T04:49:03.886Z,1018.33
2017-05-14T04:49:29.599Z,1018.34
2017-05-14T04:49:55.141Z,1018.36
2017-05-14T04:50:20.720Z,1018.32
2017-05-14T04:50:46.346Z,1018.34
2017-05-14T04:51:11.891Z,1018.33
2017-05-14T04:51:37.447Z,1018.35
2017-05-14T04:52:03.080Z,1018.35
2017-05-14T04:52:28.700Z,1018.32
2017-05-14T04:52:54.256Z,1018.35
2017-05-14T04:53:19.877Z,1018.36
2017-05-14T04:53:45.500Z,1018.38
2017-05-14T04:54:11.050Z,1018.36
2017-05-14T04:54:36.724Z,1018.36
2017-05-14T04:55:02.316Z,1018.37
2017-05-14T04:55:27.922Z,1018.37
2017-05-14T04:55:53.614Z,1018.38
2017-05-14T04:56:19.163Z,1018.38
2017-05-14T04:56:44.823Z,1018.37
2017-05-14T04:57:10.454Z,1018.38
2017-05-14T04:57:36.046Z,1018.39
2017-05-14T04:58:01.713Z,1018.4
2017-05-14T04:58:27.434Z,1018.39
2017-05-14T04:58:52.946Z,1018.42
2017-05-14T04:59:18.503Z,1018.44
2017-05-14T04:59:44.083Z,1018.39
2017-05-14T05:00:09.762Z,1018.43
2017-05-14T05:00:35.322Z,1018.44
2017-05-14T05:01:01.014Z,1018.45
2017-05-14T05:01:26.637Z,1018.42
2017-05-14T05:03:12.998Z,1018.44
2017-05-14T05:03:38.551Z,1018.46
2017-05-14T05:04:04.111Z,1018.49
2017-05-14T05:04:29.770Z,1018.46
2017-05-14T05:04:55.551Z,1018.46
2017-05-14T05:05:21.023Z,1018.43
2017-05-14T05:05:46.624Z,1018.44
2017-05-14T05:06:12.180Z,1018.42
2017-05-14T05:06:37.842Z,1018.41
2017-05-14T05:07:03.414Z,1018.44
2017-05-14T05:07:29.085Z,1018.48
2017-05-14T05:07:54.776Z,1018.44
2017-05-14T05:08:20.347Z,1018.45
2017-05-14T05:08:45.941Z,1018.44
2017-05-14T05:09:11.511Z,1018.44
2017-05-14T05:09:37.141Z,1018.51
2017-05-14T05:10:02.803Z,1018.5
2017-05-14T05:10:28.362Z,1018.5
2017-05-14T05:11:42.112Z,1018.56
2017-05-14T05:12:07.712Z,1018.46
2017-05-14T05:12:33.290Z,1018.5
2017-05-14T05:12:58.962Z,1018.54
2017-05-14T05:13:24.520Z,1018.52
2017-05-14T05:13:50.932Z,1018.51
2017-05-14T05:14:16.507Z,1018.5
2017-05-14T05:14:42.204Z,1018.56
2017-05-14T05:15:07.884Z,1018.55
2017-05-14T05:15:33.444Z,1018.5
2017-05-14T05:15:59.151Z,1018.53
2017-05-14T05:16:24.770Z,1018.55
2017-05-14T05:16:50.330Z,1018.59
2017-05-14T05:17:15.947Z,1018.56
2017-05-14T05:17:41.749Z,1018.6
2017-05-14T05:18:07.230Z,1018.61
2017-05-14T05:18:32.799Z,1018.57
2017-05-14T05:18:58.450Z,1018.57
2017-05-14T05:19:24.073Z,1018.57
2017-05-14T05:19:49.727Z,1018.59
2017-05-14T05:20:15.242Z,1018.56
2017-05-14T05:20:40.824Z,1018.59
2017-05-14T05:21:06.383Z,1018.61
2017-05-14T05:21:32.032Z,1018.63
2017-05-14T05:21:57.664Z,1018.63
2017-05-14T05:22:23.324Z,1018.62
2017-05-14T05:22:48.999Z,1018.6
2017-05-14T05:23:14.564Z,1018.62
2017-05-14T05:23:40.249Z,1018.58
2017-05-14T05:24:05.853Z,1018.62
2017-05-14T05:24:31.394Z,1018.59
2017-05-14T05:24:57.025Z,1018.62
2017-05-14T05:25:22.682Z,1018.59
2017-05-14T05:25:48.320Z,1018.58
2017-05-14T05:26:13.910Z,1018.59
2017-05-14T05:26:39.520Z,1018.59
2017-05-14T05:27:05.143Z,1018.61
2017-05-14T05:27:30.686Z,1018.66
2017-05-14T05:27:56.342Z,1018.64
2017-05-14T05:28:22.033Z,1018.67
2017-05-14T05:28:47.741Z,1018.65
2017-05-14T05:29:13.404Z,1018.67
2017-05-14T05:29:38.976Z,1018.66
2017-05-14T05:30:04.545Z,1018.66
2017-05-14T05:30:30.135Z,1018.65
2017-05-14T05:30:55.911Z,1018.69
2017-05-14T05:31:21.404Z,1018.66
2017-05-14T05:31:46.973Z,1018.68
2017-05-14T05:32:12.510Z,1018.66
2017-05-14T05:32:38.153Z,1018.67
2017-05-14T05:33:03.777Z,1018.68
2017-05-14T05:33:29.362Z,1018.67
2017-05-14T05:33:54.997Z,1018.67
2017-05-14T05:34:20.620Z,1018.7
2017-05-14T05:34:46.284Z,1018.69
2017-05-14T05:35:11.960Z,1018.7
2017-05-14T05:35:37.553Z,1018.68
2017-05-14T05:36:03.193Z,1018.66
2017-05-14T05:36:28.841Z,1018.71
2017-05-14T05:36:54.438Z,1018.67
2017-05-14T05:37:20.101Z,1018.71
2017-05-14T05:37:45.679Z,1018.68
2017-05-14T05:38:11.300Z,1018.7
2017-05-14T05:38:36.863Z,1018.71
2017-05-14T05:39:02.518Z,1018.67
2017-05-14T05:39:28.090Z,1018.66
2017-05-14T05:39:53.647Z,1018.7
2017-05-14T05:40:19.243Z,1018.67
2017-05-14T05:40:44.804Z,1018.67
2017-05-14T05:41:10.374Z,1018.74
2017-05-14T05:41:35.933Z,1018.71
2017-05-14T05:42:01.660Z,1018.71
2017-05-14T05:42:27.230Z,1018.71
2017-05-14T05:42:52.789Z,1018.71
2017-05-14T05:43:18.420Z,1018.75
2017-05-14T05:43:44.170Z,1018.74
2017-05-14T05:44:09.774Z,1018.73
2017-05-14T05:44:35.471Z,1018.76
2017-05-14T05:45:01.139Z,1018.75
2017-05-14T05:45:26.664Z,1018.73
2017-05-14T05:45:52.353Z,1018.79
2017-05-14T05:46:17.929Z,1018.77
2017-05-14T05:46:43.602Z,1018.75
2017-05-14T05:47:09.205Z,1018.72
2017-05-14T05:47:34.768Z,1018.78
2017-05-14T05:48:00.353Z,1018.74
2017-05-14T05:48:25.951Z,1018.76
2017-05-14T05:49:39.766Z,1018.74
2017-05-14T05:50:05.504Z,1018.77
2017-05-14T05:50:31.079Z,1018.76
2017-05-14T05:50:56.656Z,1018.73
2017-05-14T05:51:22.310Z,1018.77
2017-05-14T05:51:47.879Z,1018.74
2017-05-14T05:52:13.510Z,1018.75
2017-05-14T05:52:39.079Z,1018.78
2017-05-14T05:53:04.703Z,1018.79
2017-05-14T05:53:30.305Z,1018.78
2017-05-14T05:53:56.006Z,1018.79
2017-05-14T05:55:09.890Z,1018.82
2017-05-14T05:55:35.519Z,1018.8
2017-05-14T05:56:01.520Z,1018.8
2017-05-14T05:56:27.110Z,1018.88
2017-05-14T05:56:52.821Z,1018.83
2017-05-14T05:58:54.034Z,1018.82
2017-05-14T05:59:19.646Z,1018.82
2017-05-14T05:59:45.286Z,1018.8
2017-05-14T06:00:10.859Z,1018.8
2017-05-14T06:01:18.944Z,1018.81
2017-05-14T06:01:44.517Z,1018.86
2017-05-14T06:02:10.067Z,1018.83
2017-05-14T06:02:35.641Z,1018.83
2017-05-14T06:03:01.231Z,1018.82
2017-05-14T06:03:26.825Z,1018.87
2017-05-14T06:03:52.402Z,1018.9
2017-05-14T06:04:18.573Z,1018.85
2017-05-14T06:04:44.157Z,1018.86
2017-05-14T06:05:10.420Z,1018.85
2017-05-14T06:05:35.986Z,1018.82
2017-05-14T06:06:04.344Z,1018.86
2017-05-14T06:06:29.924Z,1018.83
2017-05-14T06:06:55.506Z,1018.85
2017-05-14T06:07:21.033Z,1018.88
2017-05-14T06:07:46.613Z,1018.86
2017-05-14T06:08:12.204Z,1018.88
2017-05-14T06:08:37.784Z,1018.87
2017-05-14T06:09:03.550Z,1018.87
2017-05-14T06:09:29.124Z,1018.88
2017-05-14T06:09:54.712Z,1018.9
2017-05-14T06:10:20.493Z,1018.91
2017-05-14T06:10:46.053Z,1018.91
2017-05-14T06:11:11.786Z,1018.88
2017-05-14T06:11:37.821Z,1018.89
2017-05-14T06:12:03.564Z,1018.88
2017-05-14T06:12:29.629Z,1018.91
2017-05-14T06:12:55.247Z,1018.88
2017-05-14T06:13:21.394Z,1018.9
2017-05-14T06:13:46.959Z,1018.84
2017-05-14T06:14:12.516Z,1018.85
2017-05-14T06:14:38.786Z,1018.86
2017-05-14T06:15:04.367Z,1018.88
2017-05-14T06:15:30.573Z,1018.89
2017-05-14T06:15:56.138Z,1018.91
2017-05-14T06:16:21.693Z,1018.86
2017-05-14T06:16:47.924Z,1018.85
2017-05-14T06:17:13.631Z,1018.87
2017-05-14T06:17:39.778Z,1018.89
2017-05-14T06:18:05.401Z,1018.89
2017-05-14T06:18:31.486Z,1018.87
2017-05-14T06:18:57.051Z,1018.92
2017-05-14T06:19:22.626Z,1018.89
2017-05-14T06:19:48.985Z,1018.94
2017-05-14T06:20:14.579Z,1018.91
2017-05-14T06:20:40.666Z,1018.89
2017-05-14T06:21:06.221Z,1018.9
2017-05-14T06:21:31.852Z,1018.87
2017-05-14T06:22:51.596Z,1018.93
2017-05-14T06:23:17.169Z,1018.97
2017-05-14T06:23:42.742Z,1018.94
2017-05-14T06:24:08.317Z,1018.94
2017-05-14T06:24:33.954Z,1018.95
2017-05-14T06:24:59.514Z,1018.93
2017-05-14T06:25:25.230Z,1018.93
2017-05-14T06:25:50.836Z,1018.97
2017-05-14T06:26:16.393Z,1018.96
2017-05-14T06:26:41.954Z,1018.95
2017-05-14T06:27:07.546Z,1018.97
2017-05-14T06:27:33.205Z,1018.96
2017-05-14T06:27:58.763Z,1018.99
2017-05-14T06:28:24.329Z,1019.02
2017-05-14T06:28:49.917Z,1018.99
2017-05-14T06:29:15.533Z,1019.06
2017-05-14T06:29:41.134Z,1019.04
2017-05-14T06:30:06.722Z,1019.03
2017-05-14T06:30:32.283Z,1018.97
2017-05-14T06:30:58.104Z,1019
2017-05-14T06:31:23.673Z,1019.05
2017-05-14T06:31:49.244Z,1019.04
2017-05-14T06:32:14.815Z,1019.02
2017-05-14T06:32:40.360Z,1019.06
2017-05-14T06:33:05.922Z,1019.05
2017-05-14T06:33:31.494Z,1019.08
2017-05-14T06:33:57.075Z,1019.04
2017-05-14T06:34:22.658Z,1019.05
2017-05-14T06:34:48.457Z,1019.06
2017-05-14T06:35:14.074Z,1019.07
2017-05-14T06:35:39.687Z,1019.05
2017-05-14T06:36:05.369Z,1019.05
2017-05-14T06:36:30.930Z,1019.08
2017-05-14T06:36:56.551Z,1019.03
2017-05-14T06:37:22.145Z,1019.07
2017-05-14T06:37:47.710Z,1019.07
2017-05-14T06:38:13.488Z,1019.07
2017-05-14T06:38:39.152Z,1019.09
2017-05-14T06:39:04.697Z,1019.08
2017-05-14T06:39:30.239Z,1019.09
2017-05-14T06:39:55.807Z,1019.07
2017-05-14T06:40:21.381Z,1019.06
2017-05-14T06:40:46.931Z,1019.08
2017-05-14T06:41:12.472Z,1019.07
2017-05-14T06:41:38.038Z,1019.06
2017-05-14T06:42:04.051Z,1019.09
2017-05-14T06:42:29.706Z,1019.1
2017-05-14T06:42:55.237Z,1019.13
2017-05-14T06:43:20.813Z,1019.09
2017-05-14T06:43:46.412Z,1019.14
2017-05-14T06:44:11.938Z,1019.09
2017-05-14T06:44:37.554Z,1019.12
2017-05-14T06:45:03.123Z,1019.14
2017-05-14T06:45:28.713Z,1019.08
2017-05-14T06:45:54.281Z,1019.09
2017-05-14T06:46:19.878Z,1019.13
2017-05-14T06:46:45.413Z,1019.17
2017-05-14T06:47:10.973Z,1019.17
2017-05-14T06:47:36.529Z,1019.13
2017-05-14T06:48:02.121Z,1019.17
2017-05-14T06:48:27.670Z,1019.15
2017-05-14T06:48:53.230Z,1019.12
2017-05-14T06:49:18.770Z,1019.12
2017-05-14T06:49:44.322Z,1019.17
2017-05-14T06:50:09.874Z,1019.17
2017-05-14T06:50:35.423Z,1019.16
2017-05-14T06:51:01.033Z,1019.12
2017-05-14T06:51:26.611Z,1019.12
2017-05-14T06:51:52.159Z,1019.17
2017-05-14T06:52:17.749Z,1019.19
2017-05-14T06:53:26.463Z,1019.16
2017-05-14T06:53:52.025Z,1019.17
2017-05-14T06:54:17.592Z,1019.2
2017-05-14T06:54:43.143Z,1019.23
2017-05-14T06:55:08.709Z,1019.2
2017-05-14T06:56:16.981Z,1019.2
2017-05-14T06:56:42.637Z,1019.24
2017-05-14T06:57:08.177Z,1019.25
2017-05-14T06:57:33.784Z,1019.29
2017-05-14T06:57:59.383Z,1019.3
2017-05-14T06:58:24.966Z,1019.29
2017-05-14T06:58:50.532Z,1019.29
2017-05-14T06:59:16.167Z,1019.32
2017-05-14T06:59:41.754Z,1019.31
2017-05-14T07:00:07.317Z,1019.3
2017-05-14T07:00:32.889Z,1019.3
2017-05-14T07:00:58.543Z,1019.31
2017-05-14T07:01:24.083Z,1019.29
2017-05-14T07:01:49.661Z,1019.34
2017-05-14T07:02:15.224Z,1019.36
2017-05-14T07:02:40.809Z,1019.3
2017-05-14T07:03:06.372Z,1019.32
2017-05-14T07:03:32.038Z,1019.37
2017-05-14T07:03:57.603Z,1019.32
2017-05-14T07:04:23.201Z,1019.32
2017-05-14T07:04:48.768Z,1019.39
2017-05-14T07:05:14.340Z,1019.35
2017-05-14T07:05:39.919Z,1019.39
2017-05-14T07:06:05.496Z,1019.37
2017-05-14T07:06:31.050Z,1019.36
2017-05-14T07:06:56.629Z,1019.36
2017-05-14T07:07:22.191Z,1019.35
2017-05-14T07:07:47.753Z,1019.38
2017-05-14T07:08:13.311Z,1019.35
2017-05-14T07:08:38.865Z,1019.36
2017-05-14T07:09:04.470Z,1019.34
2017-05-14T07:09:30.496Z,1019.4
2017-05-14T07:09:56.127Z,1019.36
2017-05-14T07:10:21.712Z,1019.37
2017-05-14T07:10:47.289Z,1019.38
2017-05-14T07:11:12.883Z,1019.41
2017-05-14T07:11:38.552Z,1019.38
2017-05-14T07:12:04.329Z,1019.34
2017-05-14T07:12:29.895Z,1019.38
2017-05-14T07:12:55.537Z,1019.39
2017-05-14T07:13:21.106Z,1019.45
2017-05-14T07:13:46.669Z,1019.38
2017-05-14T07:14:12.332Z,1019.4
2017-05-14T07:14:37.882Z,1019.4
2017-05-14T07:15:03.448Z,1019.42
2017-05-14T07:15:29.002Z,1019.41
2017-05-14T07:15:54.562Z,1019.49
2017-05-14T07:16:20.139Z,1019.42
2017-05-14T07:16:45.741Z,1019.42
2017-05-14T07:17:11.327Z,1019.4
2017-05-14T07:17:36.888Z,1019.41
2017-05-14T07:18:02.474Z,1019.45
2017-05-14T07:18:28.039Z,1019.45
2017-05-14T07:18:53.605Z,1019.5
2017-05-14T07:19:19.153Z,1019.48
2017-05-14T07:19:44.732Z,1019.46
2017-05-14T07:20:10.287Z,1019.47
2017-05-14T07:20:35.862Z,1019.5
2017-05-14T07:21:01.423Z,1019.46
2017-05-14T07:21:27.004Z,1019.46
2017-05-14T07:21:52.556Z,1019.46
2017-05-14T07:22:18.221Z,1019.46
2017-05-14T07:22:43.792Z,1019.48
2017-05-14T07:23:09.368Z,1019.48
2017-05-14T07:23:34.956Z,1019.5
2017-05-14T07:24:00.541Z,1019.51
2017-05-14T07:24:26.127Z,1019.54
2017-05-14T07:24:51.683Z,1019.52
2017-05-14T07:25:17.324Z,1019.52
2017-05-14T07:25:42.913Z,1019.51
2017-05-14T07:26:08.489Z,1019.52
2017-05-14T07:26:34.054Z,1019.56
2017-05-14T07:26:59.639Z,1019.53
2017-05-14T07:27:25.214Z,1019.49
2017-05-14T07:27:50.781Z,1019.53
2017-05-14T07:29:04.544Z,1019.53
2017-05-14T07:29:32.251Z,1019.55
2017-05-14T07:31:45.551Z,1019.57
2017-05-14T07:32:11.100Z,1019.58
2017-05-14T07:32:36.678Z,1019.57
2017-05-14T07:33:02.302Z,1019.57
2017-05-14T07:33:27.872Z,1019.58
2017-05-14T07:33:53.431Z,1019.57
2017-05-14T07:34:19.004Z,1019.6
2017-05-14T07:34:44.614Z,1019.63
2017-05-14T07:35:10.176Z,1019.64
2017-05-14T07:35:35.751Z,1019.63
2017-05-14T07:36:01.367Z,1019.63
2017-05-14T07:36:26.997Z,1019.61
2017-05-14T07:36:52.583Z,1019.59
2017-05-14T07:37:18.142Z,1019.63
2017-05-14T07:37:43.830Z,1019.66
2017-05-14T07:38:09.388Z,1019.71
2017-05-14T07:38:34.961Z,1019.67
2017-05-14T07:39:00.554Z,1019.64
2017-05-14T07:39:26.218Z,1019.66
2017-05-14T07:39:51.788Z,1019.65
2017-05-14T07:40:17.359Z,1019.63
2017-05-14T07:40:42.949Z,1019.73
2017-05-14T07:41:08.526Z,1019.66
2017-05-14T07:41:34.102Z,1019.71
2017-05-14T07:41:59.874Z,1019.68
2017-05-14T07:43:03.402Z,1019.7
2017-05-14T07:43:28.977Z,1019.68
2017-05-14T07:43:54.757Z,1019.71
2017-05-14T07:44:20.285Z,1019.67
2017-05-14T07:44:45.828Z,1019.74
2017-05-14T07:45:11.385Z,1019.77
2017-05-14T07:45:36.959Z,1019.74
2017-05-14T07:46:02.523Z,1019.71
2017-05-14T07:46:28.151Z,1019.72
2017-05-14T07:46:53.732Z,1019.77
2017-05-14T07:47:19.490Z,1019.72
2017-05-14T07:47:45.057Z,1019.75
2017-05-14T07:48:10.708Z,1019.74
2017-05-14T07:48:36.278Z,1019.77
2017-05-14T07:49:01.832Z,1019.79
2017-05-14T07:49:27.455Z,1019.76
2017-05-14T07:49:53.018Z,1019.79
2017-05-14T07:50:18.571Z,1019.79
2017-05-14T07:50:44.267Z,1019.8
2017-05-14T07:51:09.824Z,1019.8
2017-05-14T07:51:35.392Z,1019.8
2017-05-14T07:52:00.959Z,1019.79
2017-05-14T07:52:26.511Z,1019.85
2017-05-14T07:52:52.080Z,1019.8
2017-05-14T07:53:17.652Z,1019.82
2017-05-14T07:53:43.221Z,1019.84
2017-05-14T07:54:08.787Z,1019.77
2017-05-14T07:54:34.351Z,1019.82
2017-05-14T07:54:59.959Z,1019.8
2017-05-14T07:55:25.508Z,1019.84
2017-05-14T07:55:51.068Z,1019.81
2017-05-14T07:56:16.653Z,1019.84
2017-05-14T07:56:42.322Z,1019.82
2017-05-14T07:57:07.889Z,1019.8
2017-05-14T07:57:33.449Z,1019.83
2017-05-14T07:57:59.016Z,1019.83
2017-05-14T07:58:24.601Z,1019.84
2017-05-14T07:58:50.167Z,1019.85
2017-05-14T07:59:16.017Z,1019.85
2017-05-14T07:59:41.584Z,1019.84
2017-05-14T08:00:07.161Z,1019.89
2017-05-14T08:00:32.743Z,1019.86
2017-05-14T08:00:58.310Z,1019.87
2017-05-14T08:01:23.888Z,1019.87
2017-05-14T08:01:49.472Z,1019.89
2017-05-14T08:02:15.036Z,1019.91
2017-05-14T08:02:40.695Z,1019.92
2017-05-14T08:03:06.264Z,1019.9
2017-05-14T08:03:32.527Z,1019.91
2017-05-14T08:03:57.383Z,1019.92
2017-05-14T08:04:22.961Z,1019.87
2017-05-14T08:04:48.520Z,1019.89
2017-05-14T08:05:14.112Z,1019.89
2017-05-14T08:05:39.662Z,1019.93
2017-05-14T08:06:05.238Z,1019.94
2017-05-14T08:06:30.853Z,1019.88
2017-05-14T08:06:56.408Z,1019.92
2017-05-14T08:07:21.969Z,1019.94
2017-05-14T08:07:47.550Z,1019.96
2017-05-14T08:08:13.155Z,1019.94
2017-05-14T08:08:38.710Z,1019.93
2017-05-14T08:09:04.285Z,1019.96
2017-05-14T08:09:29.857Z,1019.95
2017-05-14T08:09:55.455Z,1019.96
2017-05-14T08:10:21.082Z,1019.95
2017-05-14T08:10:46.648Z,1019.94
2017-05-14T08:11:12.229Z,1019.95
2017-05-14T08:11:37.787Z,1019.99
2017-05-14T08:12:03.332Z,1020.01
2017-05-14T08:12:28.891Z,1020.02
2017-05-14T08:12:54.459Z,1020
2017-05-14T08:13:20.012Z,1020.03
2017-05-14T08:13:45.641Z,1020.02
2017-05-14T08:14:11.222Z,1020
2017-05-14T08:14:36.779Z,1020
2017-05-14T08:15:02.352Z,1020.03
2017-05-14T08:15:27.932Z,1019.94
2017-05-14T08:15:53.500Z,1019.98
2017-05-14T08:16:19.761Z,1020
2017-05-14T08:16:45.322Z,1019.97
2017-05-14T08:17:10.872Z,1019.95
2017-05-14T08:17:36.542Z,1020
2017-05-14T08:18:02.111Z,1020.01
2017-05-14T08:18:27.678Z,1019.95
2017-05-14T08:18:53.253Z,1020
2017-05-14T08:19:18.820Z,1019.98
2017-05-14T08:19:44.397Z,1020.01
2017-05-14T08:20:10.182Z,1019.96
2017-05-14T08:20:35.866Z,1020.01
2017-05-14T08:21:01.482Z,1019.96
2017-05-14T08:21:27.039Z,1019.98
2017-05-14T08:21:52.599Z,1020
2017-05-14T08:22:18.168Z,1020.03
2017-05-14T08:22:43.734Z,1020
2017-05-14T08:23:09.298Z,1020.04
2017-05-14T08:23:34.856Z,1020.04
2017-05-14T08:24:00.412Z,1020.07
2017-05-14T08:24:25.984Z,1020.05
2017-05-14T08:24:51.551Z,1020.04
2017-05-14T08:25:17.108Z,1020.01
2017-05-14T08:25:42.739Z,1020.05
2017-05-14T08:26:08.299Z,1020.06
2017-05-14T08:26:33.869Z,1020.06
2017-05-14T08:26:59.457Z,1020.07
2017-05-14T08:27:25.024Z,1020.07
2017-05-14T08:27:50.620Z,1020.06
2017-05-14T08:28:16.223Z,1020.08
2017-05-14T08:28:41.794Z,1020.04
2017-05-14T08:29:07.359Z,1020.09
2017-05-14T08:29:32.968Z,1020.07
2017-05-14T08:29:58.617Z,1020.04
2017-05-14T08:30:24.286Z,1020.11
2017-05-14T08:30:49.834Z,1020.11
2017-05-14T08:31:15.552Z,1020.09
2017-05-14T08:31:41.169Z,1020.08
2017-05-14T08:32:06.771Z,1020.09
2017-05-14T08:32:32.359Z,1020.08
2017-05-14T08:32:57.920Z,1020.09
2017-05-14T08:33:23.479Z,1020.09
2017-05-14T08:33:49.047Z,1020.1
2017-05-14T08:34:14.730Z,1020.13
2017-05-14T08:34:40.365Z,1020.07
2017-05-14T08:35:05.937Z,1020.1
2017-05-14T08:35:31.573Z,1020.13
2017-05-14T08:35:57.178Z,1020.1
2017-05-14T08:36:22.721Z,1020.13
2017-05-14T08:36:48.284Z,1020.11
2017-05-14T08:37:13.880Z,1020.13
2017-05-14T08:37:39.432Z,1020.11
2017-05-14T08:38:05.005Z,1020.12
2017-05-14T08:38:30.577Z,1020.12
2017-05-14T08:38:56.141Z,1020.17
2017-05-14T08:39:21.783Z,1020.13
2017-05-14T08:39:47.434Z,1020.13
2017-05-14T08:40:13.000Z,1020.19
2017-05-14T08:40:38.574Z,1020.16
2017-05-14T08:41:04.183Z,1020.16
2017-05-14T08:41:29.775Z,1020.18
2017-05-14T08:41:55.339Z,1020.19
2017-05-14T08:42:20.917Z,1020.18
2017-05-14T08:42:46.483Z,1020.17
2017-05-14T08:43:12.050Z,1020.17
2017-05-14T08:43:37.623Z,1020.19
2017-05-14T08:44:03.209Z,1020.16
2017-05-14T08:44:28.768Z,1020.21
2017-05-14T08:44:54.347Z,1020.18
2017-05-14T08:45:19.909Z,1020.18
2017-05-14T08:45:45.513Z,1020.17
2017-05-14T08:46:11.082Z,1020.16
2017-05-14T08:46:36.653Z,1020.16
2017-05-14T08:47:02.219Z,1020.18
2017-05-14T08:47:27.838Z,1020.18
2017-05-14T08:47:53.409Z,1020.19
2017-05-14T08:48:19.005Z,1020.2
2017-05-14T08:48:44.598Z,1020.19
2017-05-14T08:49:10.198Z,1020.18
2017-05-14T08:49:35.751Z,1020.19
2017-05-14T08:50:01.322Z,1020.17
2017-05-14T08:50:26.889Z,1020.21
2017-05-14T08:50:52.428Z,1020.19
2017-05-14T08:51:18.000Z,1020.22
2017-05-14T08:51:43.586Z,1020.16
2017-05-14T08:52:09.169Z,1020.22
2017-05-14T08:52:34.752Z,1020.25
2017-05-14T08:53:00.336Z,1020.25
2017-05-14T08:53:25.903Z,1020.22
2017-05-14T08:53:51.477Z,1020.19
2017-05-14T08:54:17.046Z,1020.29
2017-05-14T08:54:42.677Z,1020.26
2017-05-14T08:55:08.239Z,1020.27
2017-05-14T08:55:33.800Z,1020.26
2017-05-14T08:55:59.391Z,1020.26
2017-05-14T08:56:24.937Z,1020.28
2017-05-14T08:56:50.510Z,1020.3
2017-05-14T08:57:16.067Z,1020.34
2017-05-14T08:57:41.619Z,1020.29
2017-05-14T08:58:07.182Z,1020.3
2017-05-14T08:58:32.855Z,1020.33
2017-05-14T08:58:58.413Z,1020.29
2017-05-14T08:59:24.055Z,1020.29
2017-05-14T08:59:49.656Z,1020.31
2017-05-14T09:00:15.222Z,1020.33
2017-05-14T09:00:40.790Z,1020.32
2017-05-14T09:01:06.453Z,1020.36
2017-05-14T09:01:32.008Z,1020.32
2017-05-14T09:01:57.602Z,1020.34
2017-05-14T09:02:23.182Z,1020.3
2017-05-14T09:02:48.854Z,1020.35
2017-05-14T09:03:14.425Z,1020.37
2017-05-14T09:03:39.984Z,1020.34
2017-05-14T09:04:05.550Z,1020.32
2017-05-14T09:04:31.135Z,1020.36
2017-05-14T09:04:56.722Z,1020.36
2017-05-14T09:05:22.320Z,1020.36
2017-05-14T09:05:47.927Z,1020.39
2017-05-14T09:06:13.519Z,1020.42
2017-05-14T09:06:39.095Z,1020.36
2017-05-14T09:07:04.674Z,1020.4
2017-05-14T09:07:30.237Z,1020.36
2017-05-14T09:07:55.811Z,1020.33
2017-05-14T09:08:21.387Z,1020.31
2017-05-14T09:08:46.948Z,1020.32
2017-05-14T09:09:12.509Z,1020.32
2017-05-14T09:09:38.108Z,1020.36
2017-05-14T09:10:03.786Z,1020.33
2017-05-14T09:10:29.372Z,1020.28
2017-05-14T09:10:54.944Z,1020.32
2017-05-14T09:11:20.539Z,1020.32
2017-05-14T09:11:46.108Z,1020.32
2017-05-14T09:12:11.700Z,1020.32
2017-05-14T09:12:37.298Z,1020.36
2017-05-14T09:13:02.890Z,1020.35
2017-05-14T09:13:28.472Z,1020.33
2017-05-14T09:13:54.030Z,1020.34
2017-05-14T09:14:19.590Z,1020.33
2017-05-14T09:14:45.212Z,1020.31
2017-05-14T09:15:10.946Z,1020.35
2017-05-14T09:15:36.510Z,1020.33
2017-05-14T09:16:02.079Z,1020.33
2017-05-14T09:16:27.642Z,1020.36
2017-05-14T09:16:53.213Z,1020.34
2017-05-14T09:17:18.842Z,1020.36
2017-05-14T09:17:44.430Z,1020.38
2017-05-14T09:18:10.012Z,1020.35
2017-05-14T09:18:35.560Z,1020.35
2017-05-14T09:19:01.123Z,1020.35
2017-05-14T09:19:26.689Z,1020.35
2017-05-14T09:19:52.253Z,1020.35
2017-05-14T09:20:17.820Z,1020.35
2017-05-14T09:20:43.409Z,1020.38
2017-05-14T09:21:08.998Z,1020.35
2017-05-14T09:21:34.576Z,1020.4
2017-05-14T09:22:00.143Z,1020.34
2017-05-14T09:22:25.829Z,1020.34
2017-05-14T09:22:51.422Z,1020.32
2017-05-14T09:23:16.999Z,1020.33
2017-05-14T09:23:42.562Z,1020.34
2017-05-14T09:24:08.172Z,1020.33
2017-05-14T09:24:33.743Z,1020.33
2017-05-14T09:24:59.330Z,1020.36
2017-05-14T09:25:24.904Z,1020.36
2017-05-14T09:25:50.473Z,1020.36
2017-05-14T09:26:16.043Z,1020.35